Current Weather

Burlington Muni

Burlington, Wisconsin (KBUU)

Report from: Thursday, August 18, 2022 11:15 PM CDT
Current time: Friday, August 19, 2022 12:00 AM CDT

Nearby weather
Weather history
Weather forecast

Temperature16.5°C (61.7°F)
Dew point15.7°C (60.3°F)
Winds Calm
Visibility10 mi. (16.1 km)
Clouds Sky clear
Altimeter29.94 in.Hg (1014 mB)
Relative humidity95 %
Density altitude401 ft. (122 m)
Remarks Fully automated report
Automated weather observing station with precipitation discriminator
Present weather sensor not operating
Flight conditions Visual Meteorological Conditions
Raw dataKBUU 190415Z AUTO 00000KT 10SM CLR 17/16 A2994 RMK AO2 T01650157 PWINO
An unhandled exception has occurred. See browser dev tools for details. Reload 🗙